createdAt,value
2016-06-10T00:00:28.020Z,16.6
2016-06-10T00:01:28.086Z,16.59
2016-06-10T00:02:28.120Z,16.53
2016-06-10T00:03:28.139Z,16.55
2016-06-10T00:04:28.173Z,16.53
2016-06-10T00:05:28.271Z,16.59
2016-06-10T00:06:28.257Z,16.56
2016-06-10T00:07:28.152Z,16.48
2016-06-10T00:08:28.327Z,16.52
2016-06-10T00:09:28.439Z,16.45
2016-06-10T00:10:28.411Z,16.37
2016-06-10T00:11:28.461Z,16.44
2016-06-10T00:12:28.495Z,16.44
2016-06-10T00:13:28.545Z,16.45
2016-06-10T00:14:28.579Z,16.42
2016-06-10T00:15:28.629Z,16.33
2016-06-10T00:16:28.679Z,16.35
2016-06-10T00:17:28.761Z,16.44
2016-06-10T00:18:28.748Z,16.35
2016-06-10T00:19:28.782Z,16.33
2016-06-10T00:20:28.847Z,16.37
2016-06-10T00:21:28.867Z,16.31
2016-06-10T00:22:28.901Z,16.27
2016-06-10T00:23:28.981Z,16.34
2016-06-10T00:24:29.032Z,16.33
2016-06-10T00:25:29.019Z,16.42
2016-06-10T00:26:29.069Z,16.41
2016-06-10T00:27:29.166Z,16.26
2016-06-10T00:28:29.169Z,16.2
2016-06-10T00:29:29.047Z,16.22
2016-06-10T00:30:29.269Z,16.25
2016-06-10T00:31:29.319Z,16.2
2016-06-10T00:32:29.322Z,16.23
2016-06-10T00:33:29.371Z,16.22
2016-06-10T00:34:29.407Z,16.18
2016-06-10T00:35:29.425Z,16.26
2016-06-10T00:36:30.241Z,16.23
2016-06-10T00:37:31.431Z,16.22
2016-06-10T00:38:29.575Z,16.15
2016-06-10T00:39:29.625Z,16.15
2016-06-10T00:40:30.440Z,16.01
2016-06-10T00:41:29.678Z,16.18
2016-06-10T00:42:29.790Z,16.03
2016-06-10T00:43:29.763Z,16.07
2016-06-10T00:44:29.812Z,16.06
2016-06-10T00:45:29.846Z,16.11
2016-06-10T00:46:29.912Z,16.06
2016-06-10T00:47:30.009Z,16.03
2016-06-10T00:48:29.965Z,16
2016-06-10T00:49:30.014Z,16.15
2016-06-10T00:50:30.065Z,16
2016-06-10T00:51:30.099Z,15.99
2016-06-10T00:52:30.165Z,15.97
2016-06-10T00:53:30.183Z,16.01
2016-06-10T00:54:30.202Z,15.97
2016-06-10T00:55:30.111Z,16.07
2016-06-10T00:56:30.302Z,16.01
2016-06-10T00:57:30.367Z,16.06
2016-06-10T00:58:30.386Z,16
2016-06-10T00:59:30.406Z,15.94
2016-06-10T01:00:30.471Z,15.94
2016-06-10T01:01:30.490Z,15.96
2016-06-10T01:02:30.540Z,15.97
2016-06-10T01:03:30.574Z,15.94
2016-06-10T01:04:30.624Z,15.89
2016-06-10T01:05:30.658Z,15.88
2016-06-10T01:06:30.692Z,15.86
2016-06-10T01:07:30.742Z,15.85
2016-06-10T01:08:30.776Z,15.81
2016-06-10T01:09:32.201Z,15.92
2016-06-10T01:10:30.861Z,15.86
2016-06-10T01:11:30.943Z,15.82
2016-06-10T01:12:30.930Z,15.81
2016-06-10T01:13:30.980Z,15.81
2016-06-10T01:14:30.905Z,15.74
2016-06-10T01:15:31.080Z,15.79
2016-06-10T01:16:31.098Z,15.76
2016-06-10T01:17:31.132Z,15.78
2016-06-10T01:18:31.229Z,15.72
2016-06-10T01:19:31.217Z,15.74
2016-06-10T01:20:31.111Z,15.72
2016-06-10T01:21:31.301Z,15.66
2016-06-10T01:22:31.382Z,15.74
2016-06-10T01:23:31.400Z,15.66
2016-06-10T01:24:31.998Z,15.67
2016-06-10T01:25:31.313Z,15.64
2016-06-10T01:26:31.551Z,15.66
2016-06-10T01:27:31.537Z,15.68
2016-06-10T01:28:31.588Z,15.66
2016-06-10T01:29:31.622Z,15.57
2016-06-10T01:30:31.657Z,15.63
2016-06-10T01:31:31.706Z,15.59
2016-06-10T01:32:31.788Z,15.57
2016-06-10T01:33:31.791Z,15.52
2016-06-10T01:34:31.825Z,15.6
2016-06-10T01:35:31.875Z,15.49
2016-06-10T01:36:31.957Z,15.52
2016-06-10T01:37:32.381Z,15.52
2016-06-10T01:38:33.353Z,15.52
2016-06-10T01:39:32.029Z,15.45
2016-06-10T01:40:32.157Z,15.45
2016-06-10T01:41:32.112Z,15.41
2016-06-10T01:42:32.163Z,15.41
2016-06-10T01:43:32.197Z,15.42
2016-06-10T01:44:32.262Z,15.43
2016-06-10T01:45:32.297Z,15.41
2016-06-10T01:46:32.315Z,15.41
2016-06-10T01:47:32.396Z,15.45
2016-06-10T01:48:32.399Z,15.33
2016-06-10T01:49:32.434Z,15.45
2016-06-10T01:50:32.483Z,15.41
2016-06-10T01:51:32.519Z,15.36
2016-06-10T01:52:32.553Z,15.36
2016-06-10T01:53:32.586Z,15.38
2016-06-10T01:54:32.668Z,15.3
2016-06-10T01:55:33.140Z,15.35
2016-06-10T01:56:32.720Z,15.38
2016-06-10T01:57:32.771Z,15.27
2016-06-10T01:58:32.790Z,15.27
2016-06-10T01:59:32.980Z,15.31
2016-06-10T02:00:34.249Z,15.35
2016-06-10T02:01:32.939Z,15.24
2016-06-10T02:02:32.958Z,15.23
2016-06-10T02:03:32.992Z,15.27
2016-06-10T02:04:33.042Z,15.26
2016-06-10T02:05:33.077Z,15.23
2016-06-10T02:06:34.095Z,15.23
2016-06-10T02:07:33.146Z,15.21
2016-06-10T02:08:33.227Z,15.19
2016-06-10T02:09:33.260Z,15.15
2016-06-10T02:10:33.139Z,15.2
2016-06-10T02:11:34.547Z,15.19
2016-06-10T02:12:33.395Z,15.17
2016-06-10T02:13:33.398Z,15.19
2016-06-10T02:14:33.448Z,15.15
2016-06-10T02:15:33.482Z,15.17
2016-06-10T02:16:33.532Z,15.05
2016-06-10T02:17:33.567Z,15.05
2016-06-10T02:18:33.601Z,15.02
2016-06-10T02:19:33.651Z,15.12
2016-06-10T02:20:33.685Z,15.09
2016-06-10T02:21:33.719Z,15.13
2016-06-10T02:22:33.895Z,15.06
2016-06-10T02:23:33.819Z,15.11
2016-06-10T02:24:33.838Z,15.15
2016-06-10T02:25:33.732Z,15.17
2016-06-10T02:26:33.954Z,15.06
2016-06-10T02:27:33.972Z,15.12
2016-06-10T02:28:33.991Z,15.08
2016-06-10T02:29:34.041Z,15.11
2016-06-10T02:30:34.076Z,15.06
2016-06-10T02:31:34.109Z,15.05
2016-06-10T02:32:34.159Z,15.02
2016-06-10T02:33:34.226Z,15.17
2016-06-10T02:34:34.229Z,15.11
2016-06-10T02:35:34.278Z,15.09
2016-06-10T02:36:34.312Z,15.02
2016-06-10T02:37:34.394Z,15.06
2016-06-10T02:38:34.467Z,15.11
2016-06-10T02:39:34.538Z,15.11
2016-06-10T02:40:35.032Z,15.11
2016-06-10T02:41:34.745Z,15.06
2016-06-10T02:42:34.745Z,14.94
2016-06-10T02:43:34.792Z,15.02
2016-06-10T02:44:34.856Z,14.95
2016-06-10T02:45:34.904Z,14.98
2016-06-10T02:46:34.968Z,14.98
2016-06-10T02:47:35.011Z,14.95
2016-06-10T02:48:35.097Z,14.95
2016-06-10T02:49:35.106Z,14.98
2016-06-10T02:50:35.145Z,14.91
2016-06-10T02:51:35.215Z,14.98
2016-06-10T02:52:35.284Z,14.93
2016-06-10T02:53:35.273Z,14.94
2016-06-10T02:54:35.309Z,14.98
2016-06-10T02:55:35.377Z,14.93
2016-06-10T02:56:35.413Z,14.98
2016-06-10T02:57:35.449Z,14.93
2016-06-10T02:58:35.483Z,14.93
2016-06-10T02:59:35.644Z,14.98
2016-06-10T03:00:35.570Z,14.95
2016-06-10T03:01:35.605Z,14.9
2016-06-10T03:02:35.687Z,14.98
2016-06-10T03:03:35.689Z,14.91
2016-06-10T03:04:35.723Z,14.93
2016-06-10T03:05:35.774Z,14.87
2016-06-10T03:06:35.854Z,14.9
2016-06-10T03:07:35.843Z,14.93
2016-06-10T03:08:35.892Z,14.91
2016-06-10T03:09:35.942Z,14.95
2016-06-10T03:10:36.602Z,14.95
2016-06-10T03:11:36.011Z,14.94
2016-06-10T03:12:36.061Z,14.98
2016-06-10T03:13:36.142Z,15.02
2016-06-10T03:14:36.146Z,15.02
2016-06-10T03:15:36.179Z,14.99
2016-06-10T03:16:36.245Z,15.03
2016-06-10T03:17:36.264Z,15.08
2016-06-10T03:18:36.297Z,15.05
2016-06-10T03:19:36.347Z,15.06
2016-06-10T03:20:36.366Z,15.06
2016-06-10T03:21:36.417Z,15.05
2016-06-10T03:22:36.451Z,15.09
2016-06-10T03:23:36.500Z,15.09
2016-06-10T03:24:36.566Z,15.05
2016-06-10T03:25:36.819Z,15.12
2016-06-10T03:26:36.604Z,15.09
2016-06-10T03:27:36.685Z,15.03
2016-06-10T03:28:36.703Z,15.03
2016-06-10T03:29:36.738Z,15.08
2016-06-10T03:30:36.773Z,15.11
2016-06-10T03:31:36.822Z,15.06
2016-06-10T03:32:36.887Z,15.08
2016-06-10T03:33:36.891Z,15.12
2016-06-10T03:34:36.940Z,15.09
2016-06-10T03:35:36.990Z,15.06
2016-06-10T03:36:37.010Z,15.09
2016-06-10T03:37:37.044Z,15.19
2016-06-10T03:38:37.125Z,15.17
2016-06-10T03:39:37.144Z,15.09
2016-06-10T03:40:37.381Z,15.19
2016-06-10T03:41:37.212Z,15.21
2016-06-10T03:42:37.279Z,15.15
2016-06-10T03:43:37.328Z,15.23
2016-06-10T03:44:37.332Z,15.19
2016-06-10T03:45:37.366Z,15.19
2016-06-10T03:46:37.415Z,15.12
2016-06-10T03:47:37.450Z,15.2
2016-06-10T03:48:37.484Z,15.2
2016-06-10T03:49:37.534Z,15.13
2016-06-10T03:50:37.568Z,15.26
2016-06-10T03:51:37.618Z,15.13
2016-06-10T03:52:37.668Z,15.17
2016-06-10T03:53:37.702Z,15.17
2016-06-10T03:54:37.768Z,15.17
2016-06-10T03:55:38.240Z,15.24
2016-06-10T03:56:37.806Z,15.26
2016-06-10T03:57:37.903Z,15.28
2016-06-10T03:58:37.890Z,15.26
2016-06-10T03:59:37.939Z,15.28
2016-06-10T04:00:38.006Z,15.28
2016-06-10T04:01:38.024Z,15.39
2016-06-10T04:02:38.057Z,15.36
2016-06-10T04:03:38.093Z,15.39
2016-06-10T04:04:38.158Z,15.41
2016-06-10T04:05:38.192Z,15.52
2016-06-10T04:06:38.211Z,15.49
2016-06-10T04:07:38.245Z,15.57
2016-06-10T04:08:38.342Z,15.57
2016-06-10T04:09:38.736Z,15.76
2016-06-10T04:10:39.332Z,15.78
2016-06-10T04:11:39.617Z,15.75
2016-06-10T04:12:38.871Z,15.81
2016-06-10T04:13:38.889Z,15.84
2016-06-10T04:14:38.813Z,15.81
2016-06-10T04:15:38.911Z,15.81
2016-06-10T04:16:39.038Z,15.93
2016-06-10T04:17:39.011Z,15.89
2016-06-10T04:18:39.123Z,15.88
2016-06-10T04:19:39.173Z,15.86
2016-06-10T04:20:39.192Z,15.93
2016-06-10T04:21:39.742Z,15.96
2016-06-10T04:22:39.698Z,15.99
2016-06-10T04:23:39.342Z,15.92
2016-06-10T04:24:39.344Z,16.01
2016-06-10T04:25:39.723Z,16.01
2016-06-10T04:26:39.445Z,15.94
2016-06-10T04:27:39.229Z,15.92
2016-06-10T04:28:39.342Z,15.99
2016-06-10T04:29:39.548Z,15.99
2016-06-10T04:30:39.644Z,16.07
2016-06-10T04:31:39.241Z,16.09
2016-06-10T04:32:39.275Z,16.04
2016-06-10T04:33:39.310Z,16.11
2016-06-10T04:34:39.360Z,16.14
2016-06-10T04:35:39.394Z,16.16
2016-06-10T04:36:39.428Z,16.15
2016-06-10T04:37:39.462Z,16.11
2016-06-10T04:38:39.559Z,16.23
2016-06-10T04:39:39.546Z,16.22
2016-06-10T04:40:39.440Z,16.18
2016-06-10T04:41:39.725Z,16.16
2016-06-10T04:42:39.727Z,16.23
2016-06-10T04:43:39.716Z,16.22
2016-06-10T04:44:39.766Z,16.2
2016-06-10T04:45:39.847Z,16.14
2016-06-10T04:46:39.850Z,16.25
2016-06-10T04:47:39.884Z,16.2
2016-06-10T04:48:39.934Z,16.23
2016-06-10T04:49:40.015Z,16.27
2016-06-10T04:50:40.002Z,16.35
2016-06-10T04:51:40.037Z,16.33
2016-06-10T04:52:40.119Z,16.34
2016-06-10T04:53:40.246Z,16.37
2016-06-10T04:54:40.203Z,16.37
2016-06-10T04:55:40.736Z,16.31
2016-06-10T04:56:41.068Z,16.38
2016-06-10T04:57:40.290Z,16.44
2016-06-10T04:58:40.168Z,16.41
2016-06-10T04:59:40.468Z,16.52
2016-06-10T05:00:40.611Z,16.53
2016-06-10T05:01:40.458Z,16.5
2016-06-10T05:02:40.493Z,16.59
2016-06-10T05:03:40.542Z,16.58
2016-06-10T05:04:40.608Z,16.68
2016-06-10T05:05:40.626Z,16.71
2016-06-10T05:06:40.662Z,16.71
2016-06-10T05:07:40.804Z,16.71
2016-06-10T05:08:40.729Z,16.68
2016-06-10T05:09:41.186Z,16.73
2016-06-10T05:10:40.830Z,16.71
2016-06-10T05:11:40.754Z,16.59
2016-06-10T05:12:40.930Z,16.58
2016-06-10T05:13:40.948Z,16.58
2016-06-10T05:14:41.092Z,16.68
2016-06-10T05:15:41.017Z,16.56
2016-06-10T05:16:41.067Z,16.55
2016-06-10T05:17:41.117Z,16.6
2016-06-10T05:18:41.151Z,16.55
2016-06-10T05:19:41.202Z,16.52
2016-06-10T05:20:41.220Z,16.5
2016-06-10T05:21:41.269Z,16.45
2016-06-10T05:22:41.351Z,16.4
2016-06-10T05:23:41.339Z,16.38
2016-06-10T05:24:42.014Z,16.48
2016-06-10T05:25:41.438Z,16.49
2016-06-10T05:26:42.145Z,16.4
2016-06-10T05:27:41.648Z,16.44
2016-06-10T05:28:41.557Z,16.31
2016-06-10T05:29:41.591Z,16.35
2016-06-10T05:30:42.000Z,16.3
2016-06-10T05:31:42.581Z,16.3
2016-06-10T05:32:42.413Z,16.31
2016-06-10T05:33:41.759Z,16.27
2016-06-10T05:34:41.810Z,16.27
2016-06-10T05:35:41.829Z,16.34
2016-06-10T05:36:41.894Z,16.3
2016-06-10T05:37:41.929Z,16.37
2016-06-10T05:38:42.010Z,16.34
2016-06-10T05:39:42.013Z,16.42
2016-06-10T05:40:42.047Z,16.42
2016-06-10T05:41:42.128Z,16.49
2016-06-10T05:42:42.131Z,16.55
2016-06-10T05:43:42.291Z,16.52
2016-06-10T05:44:43.965Z,16.52
2016-06-10T05:45:42.265Z,16.48
2016-06-10T05:46:42.377Z,16.48
2016-06-10T05:47:42.380Z,16.56
2016-06-10T05:48:42.259Z,16.56
2016-06-10T05:49:42.403Z,16.62
2016-06-10T05:50:43.515Z,16.6
2016-06-10T05:51:42.502Z,16.67
2016-06-10T05:52:42.537Z,16.71
2016-06-10T05:53:42.603Z,16.75
2016-06-10T05:54:42.606Z,16.78
2016-06-10T05:55:42.702Z,16.86
2016-06-10T05:56:42.721Z,16.95
2016-06-10T05:57:42.771Z,16.95
2016-06-10T05:58:42.790Z,16.96
2016-06-10T05:59:42.825Z,17.11
2016-06-10T06:00:42.874Z,17.18
2016-06-10T06:01:42.908Z,17.22
2016-06-10T06:02:42.989Z,17.28
2016-06-10T06:03:42.993Z,17.36
2016-06-10T06:04:43.027Z,17.38
2016-06-10T06:05:43.076Z,17.35
2016-06-10T06:06:43.143Z,17.41
2016-06-10T06:07:43.708Z,17.38
2016-06-10T06:08:43.195Z,17.38
2016-06-10T06:09:43.277Z,17.36
2016-06-10T06:10:43.280Z,17.38
2016-06-10T06:11:44.267Z,17.44
2016-06-10T06:12:43.379Z,17.53
2016-06-10T06:13:43.399Z,17.5
2016-06-10T06:14:43.432Z,17.66
2016-06-10T06:15:43.592Z,17.64
2016-06-10T06:16:43.658Z,17.63
2016-06-10T06:17:43.645Z,17.63
2016-06-10T06:18:43.617Z,17.66
2016-06-10T06:19:43.901Z,17.67
2016-06-10T06:20:44.842Z,17.67
2016-06-10T06:21:45.610Z,17.67
2016-06-10T06:22:44.785Z,17.7
2016-06-10T06:23:47.648Z,17.66
2016-06-10T06:24:47.619Z,17.64
2016-06-10T06:25:46.857Z,17.66
2016-06-10T06:26:46.844Z,17.66
2016-06-10T06:27:45.739Z,17.59
2016-06-10T06:28:45.726Z,17.63
2016-06-10T06:29:46.150Z,17.57
2016-06-10T06:30:46.481Z,17.57
2016-06-10T06:31:47.860Z,17.54
2016-06-10T06:32:46.629Z,17.54
2016-06-10T06:33:46.444Z,17.57
2016-06-10T06:34:46.182Z,17.62
2016-06-10T06:35:47.122Z,17.59
2016-06-10T06:36:47.781Z,17.5
2016-06-10T06:37:48.097Z,17.53
2016-06-10T06:38:46.366Z,17.64
2016-06-10T06:39:46.994Z,17.7
2016-06-10T06:40:50.169Z,17.66
2016-06-10T06:41:46.703Z,17.74
2016-06-10T06:42:46.378Z,17.69
2016-06-10T06:43:46.053Z,17.76
2016-06-10T06:44:45.947Z,17.7
2016-06-10T06:45:46.184Z,17.67
2016-06-10T06:46:47.578Z,17.74
2016-06-10T06:47:48.190Z,17.74
2016-06-10T06:48:46.803Z,17.74
2016-06-10T06:49:49.743Z,17.74
2016-06-10T06:50:46.996Z,17.78
2016-06-10T06:51:56.297Z,17.88
2016-06-10T06:52:46.565Z,17.88
2016-06-10T06:53:46.802Z,17.76
2016-06-10T06:54:47.305Z,17.87
2016-06-10T06:55:48.339Z,17.85
2016-06-10T06:56:46.453Z,17.71
2016-06-10T06:57:47.550Z,17.62
2016-06-10T06:58:46.709Z,17.7
2016-06-10T06:59:47.851Z,17.55
2016-06-10T07:00:48.090Z,17.46
2016-06-10T07:01:48.218Z,17.51
2016-06-10T07:02:47.893Z,17.41
2016-06-10T07:03:47.536Z,17.43
2016-06-10T07:04:47.056Z,17.36
2016-06-10T07:05:47.417Z,17.4
2016-06-10T07:06:47.061Z,17.36
2016-06-10T07:07:47.299Z,17.26
2016-06-10T07:08:47.740Z,17.18
2016-06-10T07:09:47.946Z,17.22
2016-06-10T07:10:47.885Z,17.23
2016-06-10T07:11:47.655Z,17.23
2016-06-10T07:12:47.267Z,17.32
2016-06-10T07:13:48.458Z,17.38
2016-06-10T07:14:48.320Z,17.35
2016-06-10T07:15:49.167Z,17.3
2016-06-10T07:16:48.748Z,17.35
2016-06-10T07:17:48.501Z,17.36
2016-06-10T07:18:48.348Z,17.5
2016-06-10T07:19:48.726Z,17.4
2016-06-10T07:20:47.761Z,17.38
2016-06-10T07:21:48.373Z,17.4
2016-06-10T07:22:50.641Z,17.43
2016-06-10T07:23:51.660Z,17.48
2016-06-10T07:24:49.929Z,17.54
2016-06-10T07:25:50.182Z,17.55
2016-06-10T07:26:48.748Z,17.7
2016-06-10T07:27:49.220Z,17.71
2016-06-10T07:28:51.895Z,17.88
2016-06-10T07:29:53.851Z,18.03
2016-06-10T07:30:48.980Z,17.99
2016-06-10T07:31:52.638Z,18.06
2016-06-10T07:32:48.703Z,18
2016-06-10T07:33:48.879Z,18.07
2016-06-10T07:34:48.506Z,18.07
2016-06-10T07:35:50.134Z,18.02
2016-06-10T07:36:49.778Z,18.06
2016-06-10T07:37:50.719Z,18.06
2016-06-10T07:38:53.019Z,17.97
2016-06-10T07:39:50.132Z,18.07
2016-06-10T07:40:50.291Z,18.03
2016-06-10T07:41:51.856Z,18.07
2016-06-10T07:42:50.781Z,17.95
2016-06-10T07:43:50.942Z,18.06
2016-06-10T07:44:52.475Z,18.19
2016-06-10T07:45:50.759Z,18.15
2016-06-10T07:46:50.340Z,18.1
2016-06-10T07:47:49.921Z,18.25
2016-06-10T07:48:49.628Z,18.39
2016-06-10T07:49:50.146Z,18.49
2016-06-10T07:50:49.806Z,18.62
2016-06-10T07:51:50.511Z,18.82
2016-06-10T07:52:48.796Z,18.95
2016-06-10T07:53:48.628Z,19.18
2016-06-10T07:54:48.271Z,19.35
2016-06-10T07:55:51.946Z,19.63
2016-06-10T07:56:48.996Z,19.84
2016-06-10T07:57:48.375Z,19.98
2016-06-10T07:58:48.190Z,20.28
2016-06-10T07:59:48.255Z,20.5
2016-06-10T08:00:48.447Z,20.61
2016-06-10T08:01:49.059Z,20.69
2016-06-10T08:02:50.061Z,20.74
2016-06-10T08:03:50.706Z,20.87
2016-06-10T08:04:50.177Z,20.89
2016-06-10T08:05:50.602Z,20.87
2016-06-10T08:06:50.480Z,20.74
2016-06-10T08:07:51.327Z,20.72
2016-06-10T08:08:50.658Z,20.65
2016-06-10T08:09:50.708Z,20.58
2016-06-10T08:10:51.149Z,20.46
2016-06-10T08:11:51.339Z,20.15
2016-06-10T08:12:48.421Z,20.15
2016-06-10T08:13:48.440Z,19.9
2016-06-10T08:14:48.645Z,19.93
2016-06-10T08:15:48.586Z,19.8
2016-06-10T08:16:48.558Z,19.79
2016-06-10T08:17:48.654Z,19.63
2016-06-10T08:18:48.705Z,19.75
2016-06-10T08:19:48.692Z,19.66
2016-06-10T08:20:48.742Z,19.73
2016-06-10T08:21:48.886Z,19.9
2016-06-10T08:22:48.936Z,19.98
2016-06-10T08:23:49.126Z,20.03
2016-06-10T08:24:49.598Z,20.13
2016-06-10T08:25:49.054Z,20.25
2016-06-10T08:26:49.151Z,20.23
2016-06-10T08:27:49.138Z,20.15
2016-06-10T08:28:50.375Z,20.25
2016-06-10T08:29:50.347Z,20.41
2016-06-10T08:30:50.428Z,20.54
2016-06-10T08:31:50.620Z,20.61
2016-06-10T08:32:51.028Z,20.76
2016-06-10T08:33:52.015Z,20.81
2016-06-10T08:34:51.956Z,20.81
2016-06-10T08:35:52.397Z,20.99
2016-06-10T08:36:51.666Z,20.95
2016-06-10T08:37:52.028Z,21.08
2016-06-10T08:38:51.828Z,21.02
2016-06-10T08:39:51.331Z,21.13
2016-06-10T08:40:50.069Z,21.21
2016-06-10T08:41:50.713Z,21.2
2016-06-10T08:42:51.262Z,21.19
2016-06-10T08:43:50.875Z,21.2
2016-06-10T08:44:50.846Z,21.21
2016-06-10T08:45:50.162Z,21.21
2016-06-10T08:46:50.322Z,20.95
2016-06-10T08:47:51.106Z,20.79
2016-06-10T08:48:50.953Z,20.62
2016-06-10T08:49:51.206Z,20.46
2016-06-10T08:50:50.647Z,20.27
2016-06-10T08:51:50.134Z,20.16
2016-06-10T08:52:51.059Z,19.98
2016-06-10T08:53:51.046Z,20
2016-06-10T08:54:51.253Z,19.93
2016-06-10T08:55:51.459Z,20.05
2016-06-10T08:56:50.524Z,20.03
2016-06-10T08:57:51.309Z,20.2
2016-06-10T08:58:51.062Z,20.21
2016-06-10T08:59:52.190Z,20.3
2016-06-10T09:00:51.256Z,20.51
2016-06-10T09:01:51.774Z,20.64
2016-06-10T09:02:51.012Z,20.87
2016-06-10T09:03:52.671Z,20.81
2016-06-10T09:04:51.846Z,20.93
2016-06-10T09:05:51.756Z,21.02
2016-06-10T09:06:52.837Z,21.06
2016-06-10T09:07:52.449Z,21.23
2016-06-10T09:08:52.717Z,21.34
2016-06-10T09:09:52.173Z,21.51
2016-06-10T09:10:51.817Z,21.54
2016-06-10T09:11:53.445Z,21.64
2016-06-10T09:12:53.323Z,21.51
2016-06-10T09:13:55.077Z,21.57
2016-06-10T09:14:53.221Z,21.67
2016-06-10T09:15:53.082Z,21.78
2016-06-10T09:16:54.242Z,21.9
2016-06-10T09:17:53.355Z,21.91
2016-06-10T09:18:53.014Z,21.91
2016-06-10T09:19:54.204Z,21.98
2016-06-10T09:20:53.739Z,21.92
2016-06-10T09:21:54.382Z,21.88
2016-06-10T09:22:53.932Z,21.83
2016-06-10T09:23:52.827Z,21.91
2016-06-10T09:24:52.767Z,22.01
2016-06-10T09:25:53.161Z,22.14
2016-06-10T09:26:51.633Z,22.23
2016-06-10T09:27:51.667Z,22.44
2016-06-10T09:28:52.122Z,22.5
2016-06-10T09:29:52.173Z,22.62
2016-06-10T09:30:53.379Z,22.65
2016-06-10T09:31:53.335Z,22.78
2016-06-10T09:32:53.495Z,22.84
2016-06-10T09:33:52.044Z,23.01
2016-06-10T09:34:52.016Z,23.19
2016-06-10T09:35:52.019Z,23.27
2016-06-10T09:36:52.194Z,23.45
2016-06-10T09:37:52.134Z,23.53
2016-06-10T09:38:52.184Z,23.5
2016-06-10T09:39:53.516Z,23.45
2016-06-10T09:40:52.269Z,23.49
2016-06-10T09:41:52.772Z,23.57
2016-06-10T09:42:52.994Z,23.62
2016-06-10T09:43:52.403Z,23.76
2016-06-10T09:44:52.453Z,23.82
2016-06-10T09:45:52.550Z,23.89
2016-06-10T09:46:52.584Z,23.94
2016-06-10T09:47:52.572Z,23.97
2016-06-10T09:48:52.622Z,24.07
2016-06-10T09:49:52.688Z,24.16
2016-06-10T09:50:52.799Z,24.17
2016-06-10T09:51:53.303Z,24.26
2016-06-10T09:52:53.525Z,24.07
2016-06-10T09:53:52.872Z,24.08
2016-06-10T09:54:53.953Z,23.92
2016-06-10T09:55:52.956Z,23.95
2016-06-10T09:56:54.631Z,23.9
2016-06-10T09:57:55.649Z,23.65
2016-06-10T09:58:54.934Z,23.65
2016-06-10T09:59:55.546Z,23.77
2016-06-10T10:00:54.190Z,23.87
2016-06-10T10:01:54.693Z,23.95
2016-06-10T10:02:53.961Z,23.94
2016-06-10T10:03:53.403Z,23.9
2016-06-10T10:04:55.187Z,23.8
2016-06-10T10:05:53.409Z,23.67
2016-06-10T10:06:53.584Z,23.64
2016-06-10T10:07:53.555Z,23.58
2016-06-10T10:08:53.543Z,23.55
2016-06-10T10:09:53.593Z,23.49
2016-06-10T10:10:53.658Z,23.46
2016-06-10T10:11:53.583Z,23.5
2016-06-10T10:12:53.727Z,23.5
2016-06-10T10:13:53.605Z,23.49
2016-06-10T10:14:53.686Z,23.32
2016-06-10T10:15:53.721Z,23.27
2016-06-10T10:16:53.911Z,23.12
2016-06-10T10:17:53.976Z,23.22
2016-06-10T10:18:53.838Z,23.27
2016-06-10T10:19:54.046Z,23.43
2016-06-10T10:20:54.080Z,23.46
2016-06-10T10:21:54.269Z,23.46
2016-06-10T10:22:54.180Z,23.42
2016-06-10T10:23:54.073Z,23.53
2016-06-10T10:24:54.279Z,23.61
2016-06-10T10:25:54.360Z,23.64
2016-06-10T10:26:54.676Z,23.67
2016-06-10T10:27:54.898Z,23.67
2016-06-10T10:28:54.479Z,23.64
2016-06-10T10:29:54.544Z,23.5
2016-06-10T10:30:54.532Z,23.53
2016-06-10T10:31:54.582Z,23.47
2016-06-10T10:32:54.663Z,23.45
2016-06-10T10:33:54.682Z,23.38
2016-06-10T10:34:54.732Z,23.24
2016-06-10T10:35:54.829Z,23.29
2016-06-10T10:36:54.863Z,23.31
2016-06-10T10:37:57.788Z,23.35
2016-06-10T10:38:54.760Z,23.35
2016-06-10T10:39:54.794Z,23.4
2016-06-10T10:40:55.017Z,23.46
2016-06-10T10:41:55.051Z,23.58
2016-06-10T10:42:54.960Z,23.64
2016-06-10T10:43:55.165Z,23.55
2016-06-10T10:44:55.232Z,23.43
2016-06-10T10:45:55.235Z,23.27
2016-06-10T10:46:55.128Z,23.07
2016-06-10T10:47:55.162Z,23.11
2016-06-10T10:48:55.212Z,23.14
2016-06-10T10:49:55.419Z,22.97
2016-06-10T10:50:55.469Z,22.89
2016-06-10T10:51:55.362Z,22.87
2016-06-10T10:52:55.256Z,23.01
2016-06-10T10:53:55.603Z,23.15
2016-06-10T10:54:55.668Z,23.24
2016-06-10T10:55:55.719Z,23.47
2016-06-10T10:56:55.785Z,23.82
2016-06-10T10:57:55.663Z,24.1
2016-06-10T10:58:55.962Z,24.37
2016-06-10T10:59:57.761Z,25
2016-06-10T11:00:57.327Z,25.56
2016-06-10T11:01:56.314Z,26.36
2016-06-10T11:02:56.428Z,27.11
2016-06-10T11:03:56.102Z,27.94
2016-06-10T11:04:56.340Z,28.63
2016-06-10T11:05:56.233Z,29.55
2016-06-10T11:06:56.268Z,30.36
2016-06-10T11:07:56.302Z,30.99
2016-06-10T11:08:56.383Z,31.5
2016-06-10T11:09:56.417Z,32.3
2016-06-10T11:10:56.484Z,33.06
2016-06-10T11:11:56.595Z,33.8
2016-06-10T11:12:56.646Z,34.5
2016-06-10T11:13:56.632Z,35.21
2016-06-10T11:14:56.698Z,35.91
2016-06-10T11:15:56.764Z,36.67
2016-06-10T11:16:56.861Z,37.39
2016-06-10T11:17:57.833Z,38.07
2016-06-10T11:18:56.930Z,38.6
2016-06-10T11:19:56.995Z,38.92
2016-06-10T11:20:57.093Z,39.62
2016-06-10T11:21:57.127Z,39.9
2016-06-10T11:22:57.176Z,40.14
2016-06-10T11:23:57.258Z,40.12
2016-06-10T11:24:57.291Z,40.27
2016-06-10T11:25:57.327Z,40.4
2016-06-10T11:26:57.408Z,40.65
2016-06-10T11:27:58.051Z,40.99
2016-06-10T11:28:57.554Z,41.2
2016-06-10T11:29:57.556Z,41.33
2016-06-10T11:30:57.654Z,41.36
2016-06-10T11:31:57.688Z,41.4
2016-06-10T11:32:57.754Z,41.31
2016-06-10T11:33:57.804Z,41.31
2016-06-10T11:34:57.854Z,41.22
2016-06-10T11:35:57.919Z,41.24
2016-06-10T11:36:57.969Z,41.24
2016-06-10T11:37:58.097Z,41.2
2016-06-10T11:38:58.132Z,41.39
2016-06-10T11:39:58.167Z,41.56
2016-06-10T11:40:58.262Z,41.56
2016-06-10T11:41:58.281Z,41.62
2016-06-10T11:42:58.347Z,41.78
2016-06-10T11:43:58.412Z,41.91
2016-06-10T11:44:58.548Z,41.77
2016-06-10T11:45:58.621Z,41.61
2016-06-10T11:46:58.742Z,41.5
2016-06-10T11:47:58.816Z,41.43
2016-06-10T11:48:58.957Z,40.87
2016-06-10T11:49:59.131Z,40.61
2016-06-10T11:50:59.101Z,40.49
2016-06-10T11:51:59.198Z,40.62
2016-06-10T11:52:59.215Z,40.86
2016-06-10T11:53:59.290Z,41.13
2016-06-10T11:54:59.392Z,41.61
2016-06-10T11:55:59.478Z,41.86
2016-06-10T11:56:59.534Z,42.23
2016-06-10T11:58:00.339Z,42.37
2016-06-10T11:58:59.674Z,42.62
2016-06-10T11:59:59.850Z,42.5
2016-06-10T12:00:59.761Z,42.57
2016-06-10T12:02:00.908Z,42.62
2016-06-10T12:03:00.553Z,42.68
2016-06-10T12:03:59.792Z,42.79
2016-06-10T12:04:59.998Z,42.94
2016-06-10T12:06:00.080Z,42.9
2016-06-10T12:07:00.130Z,42.81
2016-06-10T12:08:01.727Z,42.65
2016-06-10T12:09:00.277Z,42.57
2016-06-10T12:10:00.343Z,42.53
2016-06-10T12:11:00.378Z,42.49
2016-06-10T12:12:00.445Z,42.46
2016-06-10T12:13:01.198Z,42.65
2016-06-10T12:14:00.577Z,42.68
2016-06-10T12:15:01.688Z,42.72
2016-06-10T12:16:00.692Z,42.92
2016-06-10T12:17:00.756Z,43.02
2016-06-10T12:18:00.823Z,42.94
2016-06-10T12:19:00.888Z,42.92
2016-06-10T12:20:01.391Z,42.91
2016-06-10T12:21:01.019Z,42.88
2016-06-10T12:22:01.397Z,42.69
2016-06-10T12:23:01.760Z,42.65
2016-06-10T12:24:01.217Z,42.63
2016-06-10T12:25:01.704Z,42.37
2016-06-10T12:26:02.566Z,42.31
2016-06-10T12:27:01.631Z,42.1
2016-06-10T12:28:01.463Z,41.73
2016-06-10T12:29:01.262Z,40.96
2016-06-10T12:30:01.579Z,40.69
2016-06-10T12:31:01.660Z,40.46
2016-06-10T12:32:02.568Z,40.14
2016-06-10T12:33:01.790Z,39.81
2016-06-10T12:34:02.450Z,39.88
2016-06-10T12:35:01.937Z,39.9
2016-06-10T12:36:01.940Z,39.98
2016-06-10T12:37:03.553Z,40.12
2016-06-10T12:38:02.118Z,40.33
2016-06-10T12:39:02.419Z,40.57
2016-06-10T12:40:02.515Z,40.79
2016-06-10T12:41:02.252Z,40.99
2016-06-10T12:42:02.818Z,41.25
2016-06-10T12:43:02.322Z,41.15
2016-06-10T12:44:02.887Z,41.12
2016-06-10T12:45:02.547Z,41.25
2016-06-10T12:46:02.596Z,41.33
2016-06-10T12:47:03.349Z,41.34
2016-06-10T12:48:03.134Z,41.43
2016-06-10T12:49:02.855Z,41.52
2016-06-10T12:50:02.812Z,41.49
2016-06-10T12:51:02.862Z,41.27
2016-06-10T12:52:04.318Z,41.05
2016-06-10T12:53:03.009Z,41.02
2016-06-10T12:54:02.902Z,40.8
2016-06-10T12:55:03.670Z,40.56
2016-06-10T12:56:03.048Z,40.32